sensor_id;sensor_type;location;lat;lon;timestamp;P1;durP1;ratioP1;P2;durP2;ratioP2
10191;SDS011;17580;50.850;4.504;2023-06-05T00:00:11;3.17;;;2.97;;
10191;SDS011;17580;50.850;4.504;2023-06-05T00:02:39;2.93;;;2.63;;
10191;SDS011;17580;50.850;4.504;2023-06-05T00:05:07;3.57;;;2.90;;
10191;SDS011;17580;50.850;4.504;2023-06-05T00:07:34;2.60;;;2.40;;
10191;SDS011;17580;50.850;4.504;2023-06-05T00:10:04;2.80;;;2.33;;
10191;SDS011;17580;50.850;4.504;2023-06-05T00:12:32;2.57;;;2.37;;
10191;SDS011;17580;50.850;4.504;2023-06-05T00:14:59;2.27;;;2.07;;
10191;SDS011;17580;50.850;4.504;2023-06-05T00:17:28;3.97;;;2.50;;
10191;SDS011;17580;50.850;4.504;2023-06-05T00:19:55;2.40;;;2.20;;
10191;SDS011;17580;50.850;4.504;2023-06-05T00:22:25;7.43;;;2.77;;
10191;SDS011;17580;50.850;4.504;2023-06-05T00:24:53;6.40;;;2.60;;
10191;SDS011;17580;50.850;4.504;2023-06-05T00:27:20;3.57;;;2.63;;
10191;SDS011;17580;50.850;4.504;2023-06-05T00:29:48;2.60;;;2.40;;
10191;SDS011;17580;50.850;4.504;2023-06-05T00:32:15;2.43;;;2.23;;
10191;SDS011;17580;50.850;4.504;2023-06-05T00:34:43;2.50;;;2.10;;
10191;SDS011;17580;50.850;4.504;2023-06-05T00:37:11;4.60;;;3.27;;
10191;SDS011;17580;50.850;4.504;2023-06-05T00:39:39;4.27;;;3.40;;
10191;SDS011;17580;50.850;4.504;2023-06-05T00:42:06;3.90;;;2.60;;
10191;SDS011;17580;50.850;4.504;2023-06-05T00:44:34;3.93;;;2.13;;
10191;SDS011;17580;50.850;4.504;2023-06-05T00:47:01;2.57;;;2.40;;
10191;SDS011;17580;50.850;4.504;2023-06-05T00:49:29;2.53;;;2.10;;
10191;SDS011;17580;50.850;4.504;2023-06-05T00:51:58;2.53;;;2.30;;
10191;SDS011;17580;50.850;4.504;2023-06-05T00:54:25;2.20;;;2.03;;
10191;SDS011;17580;50.850;4.504;2023-06-05T00:56:53;2.53;;;2.33;;
10191;SDS011;17580;50.850;4.504;2023-06-05T00:59:20;1.90;;;1.80;;
10191;SDS011;17580;50.850;4.504;2023-06-05T01:01:47;2.37;;;2.03;;
10191;SDS011;17580;50.850;4.504;2023-06-05T01:04:15;2.10;;;2.00;;
10191;SDS011;17580;50.850;4.504;2023-06-05T01:06:42;3.13;;;2.17;;
10191;SDS011;17580;50.850;4.504;2023-06-05T01:09:11;3.30;;;2.17;;
10191;SDS011;17580;50.850;4.504;2023-06-05T01:11:40;3.43;;;2.13;;
10191;SDS011;17580;50.850;4.504;2023-06-05T01:14:14;3.27;;;2.13;;
10191;SDS011;17580;50.850;4.504;2023-06-05T01:16:47;2.23;;;2.10;;
10191;SDS011;17580;50.850;4.504;2023-06-05T01:19:16;2.90;;;2.60;;
10191;SDS011;17580;50.850;4.504;2023-06-05T01:21:45;2.90;;;2.60;;
10191;SDS011;17580;50.850;4.504;2023-06-05T01:24:13;6.77;;;2.53;;
10191;SDS011;17580;50.850;4.504;2023-06-05T01:26:43;4.47;;;2.30;;
10191;SDS011;17580;50.850;4.504;2023-06-05T01:29:21;2.30;;;2.10;;
10191;SDS011;17580;50.850;4.504;2023-06-05T01:31:51;2.57;;;2.40;;
10191;SDS011;17580;50.850;4.504;2023-06-05T01:34:24;2.97;;;2.60;;
10191;SDS011;17580;50.850;4.504;2023-06-05T01:36:52;2.70;;;2.50;;
10191;SDS011;17580;50.850;4.504;2023-06-05T01:39:22;2.43;;;2.33;;
10191;SDS011;17580;50.850;4.504;2023-06-05T01:41:51;2.70;;;2.50;;
10191;SDS011;17580;50.850;4.504;2023-06-05T01:44:20;2.90;;;2.20;;
10191;SDS011;17580;50.850;4.504;2023-06-05T01:46:48;3.10;;;2.77;;
10191;SDS011;17580;50.850;4.504;2023-06-05T01:49:15;6.30;;;2.50;;
10191;SDS011;17580;50.850;4.504;2023-06-05T01:51:42;2.83;;;2.50;;
10191;SDS011;17580;50.850;4.504;2023-06-05T01:54:10;2.43;;;2.30;;
10191;SDS011;17580;50.850;4.504;2023-06-05T01:56:38;2.67;;;2.40;;
10191;SDS011;17580;50.850;4.504;2023-06-05T01:59:05;2.60;;;2.40;;
10191;SDS011;17580;50.850;4.504;2023-06-05T02:01:33;2.43;;;2.23;;
10191;SDS011;17580;50.850;4.504;2023-06-05T02:04:01;2.60;;;2.40;;
10191;SDS011;17580;50.850;4.504;2023-06-05T02:06:33;2.67;;;2.40;;
10191;SDS011;17580;50.850;4.504;2023-06-05T02:09:07;2.63;;;2.33;;
10191;SDS011;17580;50.850;4.504;2023-06-05T02:11:35;2.63;;;2.43;;
10191;SDS011;17580;50.850;4.504;2023-06-05T02:14:04;2.80;;;2.60;;
10191;SDS011;17580;50.850;4.504;2023-06-05T02:16:32;5.07;;;2.47;;
10191;SDS011;17580;50.850;4.504;2023-06-05T02:19:01;4.93;;;2.47;;
10191;SDS011;17580;50.850;4.504;2023-06-05T02:21:29;2.30;;;2.10;;
10191;SDS011;17580;50.850;4.504;2023-06-05T02:23:58;2.90;;;2.67;;
10191;SDS011;17580;50.850;4.504;2023-06-05T02:26:25;2.27;;;2.17;;
10191;SDS011;17580;50.850;4.504;2023-06-05T02:28:54;2.93;;;2.57;;
10191;SDS011;17580;50.850;4.504;2023-06-05T02:31:21;3.07;;;2.87;;
10191;SDS011;17580;50.850;4.504;2023-06-05T02:33:50;2.47;;;2.20;;
10191;SDS011;17580;50.850;4.504;2023-06-05T02:36:18;2.87;;;2.63;;
10191;SDS011;17580;50.850;4.504;2023-06-05T02:38:45;2.70;;;2.43;;
10191;SDS011;17580;50.850;4.504;2023-06-05T02:41:14;2.67;;;2.47;;
10191;SDS011;17580;50.850;4.504;2023-06-05T02:43:42;2.83;;;2.60;;
10191;SDS011;17580;50.850;4.504;2023-06-05T02:46:11;2.97;;;2.47;;
10191;SDS011;17580;50.850;4.504;2023-06-05T02:48:38;5.10;;;2.83;;
10191;SDS011;17580;50.850;4.504;2023-06-05T02:51:05;2.67;;;2.30;;
10191;SDS011;17580;50.850;4.504;2023-06-05T02:53:34;2.77;;;2.43;;
10191;SDS011;17580;50.850;4.504;2023-06-05T02:56:01;3.30;;;2.73;;
10191;SDS011;17580;50.850;4.504;2023-06-05T02:58:29;5.30;;;2.80;;
10191;SDS011;17580;50.850;4.504;2023-06-05T03:00:56;2.40;;;2.20;;
10191;SDS011;17580;50.850;4.504;2023-06-05T03:03:28;2.73;;;2.53;;
10191;SDS011;17580;50.850;4.504;2023-06-05T03:05:56;3.17;;;2.87;;
10191;SDS011;17580;50.850;4.504;2023-06-05T03:08:27;2.60;;;2.40;;
10191;SDS011;17580;50.850;4.504;2023-06-05T03:10:54;4.03;;;2.50;;
10191;SDS011;17580;50.850;4.504;2023-06-05T03:13:21;2.97;;;2.60;;
10191;SDS011;17580;50.850;4.504;2023-06-05T03:15:48;3.00;;;2.53;;
10191;SDS011;17580;50.850;4.504;2023-06-05T03:18:18;2.97;;;2.77;;
10191;SDS011;17580;50.850;4.504;2023-06-05T03:20:47;2.90;;;2.70;;
10191;SDS011;17580;50.850;4.504;2023-06-05T03:23:15;2.77;;;2.60;;
10191;SDS011;17580;50.850;4.504;2023-06-05T03:25:42;3.17;;;2.87;;
10191;SDS011;17580;50.850;4.504;2023-06-05T03:28:09;3.13;;;2.93;;
10191;SDS011;17580;50.850;4.504;2023-06-05T03:30:36;3.17;;;2.80;;
10191;SDS011;17580;50.850;4.504;2023-06-05T03:33:04;3.60;;;3.07;;
10191;SDS011;17580;50.850;4.504;2023-06-05T03:35:32;3.60;;;2.90;;
10191;SDS011;17580;50.850;4.504;2023-06-05T03:38:01;3.13;;;2.80;;
10191;SDS011;17580;50.850;4.504;2023-06-05T03:40:29;4.13;;;2.70;;
10191;SDS011;17580;50.850;4.504;2023-06-05T03:42:57;3.10;;;2.80;;
10191;SDS011;17580;50.850;4.504;2023-06-05T03:45:24;2.77;;;2.57;;
10191;SDS011;17580;50.850;4.504;2023-06-05T03:47:52;3.13;;;2.93;;
10191;SDS011;17580;50.850;4.504;2023-06-05T03:50:21;4.10;;;2.90;;
10191;SDS011;17580;50.850;4.504;2023-06-05T03:52:49;4.77;;;2.67;;
10191;SDS011;17580;50.850;4.504;2023-06-05T03:55:19;6.90;;;2.67;;
10191;SDS011;17580;50.850;4.504;2023-06-05T03:57:46;3.37;;;2.70;;
10191;SDS011;17580;50.850;4.504;2023-06-05T04:00:13;2.60;;;2.40;;
10191;SDS011;17580;50.850;4.504;2023-06-05T04:02:41;3.10;;;2.90;;
10191;SDS011;17580;50.850;4.504;2023-06-05T04:05:08;4.90;;;2.73;;
10191;SDS011;17580;50.850;4.504;2023-06-05T04:07:37;3.37;;;3.00;;
10191;SDS011;17580;50.850;4.504;2023-06-05T04:10:05;3.37;;;2.57;;
10191;SDS011;17580;50.850;4.504;2023-06-05T04:12:34;4.33;;;3.10;;
10191;SDS011;17580;50.850;4.504;2023-06-05T04:15:01;3.60;;;2.87;;
10191;SDS011;17580;50.850;4.504;2023-06-05T04:17:28;3.30;;;3.00;;
10191;SDS011;17580;50.850;4.504;2023-06-05T04:19:55;3.27;;;3.03;;
10191;SDS011;17580;50.850;4.504;2023-06-05T04:22:22;3.33;;;3.03;;
10191;SDS011;17580;50.850;4.504;2023-06-05T04:24:49;3.50;;;3.30;;
10191;SDS011;17580;50.850;4.504;2023-06-05T04:27:16;4.03;;;3.10;;
10191;SDS011;17580;50.850;4.504;2023-06-05T04:29:44;3.77;;;3.37;;
10191;SDS011;17580;50.850;4.504;2023-06-05T04:32:14;3.40;;;3.10;;
10191;SDS011;17580;50.850;4.504;2023-06-05T04:34:42;3.57;;;3.10;;
10191;SDS011;17580;50.850;4.504;2023-06-05T04:37:08;3.20;;;2.90;;
10191;SDS011;17580;50.850;4.504;2023-06-05T04:39:35;3.50;;;3.20;;
10191;SDS011;17580;50.850;4.504;2023-06-05T04:42:03;3.67;;;3.33;;
10191;SDS011;17580;50.850;4.504;2023-06-05T04:44:30;3.87;;;3.37;;
10191;SDS011;17580;50.850;4.504;2023-06-05T04:46:58;4.30;;;3.43;;
10191;SDS011;17580;50.850;4.504;2023-06-05T04:49:25;3.57;;;3.30;;
10191;SDS011;17580;50.850;4.504;2023-06-05T04:51:53;3.60;;;3.30;;
10191;SDS011;17580;50.850;4.504;2023-06-05T04:54:23;3.53;;;3.17;;
10191;SDS011;17580;50.850;4.504;2023-06-05T04:56:50;3.50;;;3.30;;
10191;SDS011;17580;50.850;4.504;2023-06-05T04:59:18;4.17;;;3.70;;
10191;SDS011;17580;50.850;4.504;2023-06-05T05:01:45;6.17;;;3.10;;
10191;SDS011;17580;50.850;4.504;2023-06-05T05:04:16;3.43;;;3.23;;
10191;SDS011;17580;50.850;4.504;2023-06-05T05:06:43;3.87;;;3.57;;
10191;SDS011;17580;50.850;4.504;2023-06-05T05:09:12;4.95;;;4.15;;
10191;SDS011;17580;50.850;4.504;2023-06-05T05:11:39;4.00;;;3.67;;
10191;SDS011;17580;50.850;4.504;2023-06-05T05:14:06;3.50;;;3.30;;
10191;SDS011;17580;50.850;4.504;2023-06-05T05:16:33;5.40;;;3.57;;
10191;SDS011;17580;50.850;4.504;2023-06-05T05:19:00;4.73;;;3.80;;
10191;SDS011;17580;50.850;4.504;2023-06-05T05:21:29;3.67;;;3.47;;
10191;SDS011;17580;50.850;4.504;2023-06-05T05:23:56;5.80;;;3.50;;
10191;SDS011;17580;50.850;4.504;2023-06-05T05:26:23;4.17;;;3.87;;
10191;SDS011;17580;50.850;4.504;2023-06-05T05:28:50;5.77;;;3.90;;
10191;SDS011;17580;50.850;4.504;2023-06-05T05:31:17;6.17;;;4.53;;
10191;SDS011;17580;50.850;4.504;2023-06-05T05:33:44;5.03;;;3.93;;
10191;SDS011;17580;50.850;4.504;2023-06-05T05:36:11;4.10;;;3.70;;
10191;SDS011;17580;50.850;4.504;2023-06-05T05:38:40;7.70;;;3.93;;
10191;SDS011;17580;50.850;4.504;2023-06-05T05:41:07;4.33;;;3.93;;
10191;SDS011;17580;50.850;4.504;2023-06-05T05:43:34;4.63;;;4.00;;
10191;SDS011;17580;50.850;4.504;2023-06-05T05:46:01;4.30;;;3.90;;
10191;SDS011;17580;50.850;4.504;2023-06-05T05:48:28;5.47;;;4.30;;
10191;SDS011;17580;50.850;4.504;2023-06-05T05:50:55;4.13;;;3.83;;
10191;SDS011;17580;50.850;4.504;2023-06-05T05:53:22;7.03;;;4.30;;
10191;SDS011;17580;50.850;4.504;2023-06-05T05:55:51;5.27;;;3.87;;
10191;SDS011;17580;50.850;4.504;2023-06-05T05:58:18;5.60;;;4.90;;
10191;SDS011;17580;50.850;4.504;2023-06-05T06:00:45;5.00;;;4.20;;
10191;SDS011;17580;50.850;4.504;2023-06-05T06:03:13;4.60;;;4.20;;
10191;SDS011;17580;50.850;4.504;2023-06-05T06:05:40;5.43;;;4.00;;
10191;SDS011;17580;50.850;4.504;2023-06-05T06:08:07;5.23;;;4.73;;
10191;SDS011;17580;50.850;4.504;2023-06-05T06:10:34;6.17;;;4.40;;
10191;SDS011;17580;50.850;4.504;2023-06-05T06:13:03;5.70;;;4.50;;
10191;SDS011;17580;50.850;4.504;2023-06-05T06:15:30;8.53;;;4.43;;
10191;SDS011;17580;50.850;4.504;2023-06-05T06:17:57;6.40;;;4.70;;
10191;SDS011;17580;50.850;4.504;2023-06-05T06:20:27;7.53;;;4.23;;
10191;SDS011;17580;50.850;4.504;2023-06-05T06:22:54;9.00;;;5.13;;
10191;SDS011;17580;50.850;4.504;2023-06-05T06:25:21;4.33;;;4.03;;
10191;SDS011;17580;50.850;4.504;2023-06-05T06:27:51;8.97;;;4.70;;
10191;SDS011;17580;50.850;4.504;2023-06-05T06:30:20;4.83;;;4.43;;
10191;SDS011;17580;50.850;4.504;2023-06-05T06:32:47;5.07;;;4.20;;
10191;SDS011;17580;50.850;4.504;2023-06-05T06:35:14;5.33;;;4.83;;
10191;SDS011;17580;50.850;4.504;2023-06-05T06:37:41;5.10;;;4.60;;
10191;SDS011;17580;50.850;4.504;2023-06-05T06:40:10;6.23;;;4.90;;
10191;SDS011;17580;50.850;4.504;2023-06-05T06:42:37;5.53;;;4.97;;
10191;SDS011;17580;50.850;4.504;2023-06-05T06:45:05;5.20;;;4.70;;
10191;SDS011;17580;50.850;4.504;2023-06-05T06:47:34;5.03;;;4.23;;
10191;SDS011;17580;50.850;4.504;2023-06-05T06:50:01;5.30;;;4.80;;
10191;SDS011;17580;50.850;4.504;2023-06-05T06:52:28;5.63;;;5.13;;
10191;SDS011;17580;50.850;4.504;2023-06-05T06:54:55;5.93;;;5.40;;
10191;SDS011;17580;50.850;4.504;2023-06-05T06:57:22;7.50;;;5.40;;
10191;SDS011;17580;50.850;4.504;2023-06-05T06:59:49;8.43;;;4.80;;
10191;SDS011;17580;50.850;4.504;2023-06-05T07:02:19;10.83;;;5.43;;
10191;SDS011;17580;50.850;4.504;2023-06-05T07:04:48;6.07;;;5.53;;
10191;SDS011;17580;50.850;4.504;2023-06-05T07:07:16;4.93;;;4.40;;
10191;SDS011;17580;50.850;4.504;2023-06-05T07:09:44;5.60;;;5.00;;
10191;SDS011;17580;50.850;4.504;2023-06-05T07:12:13;5.73;;;4.77;;
10191;SDS011;17580;50.850;4.504;2023-06-05T07:14:40;5.63;;;5.10;;
10191;SDS011;17580;50.850;4.504;2023-06-05T07:17:08;5.73;;;5.23;;
10191;SDS011;17580;50.850;4.504;2023-06-05T07:19:35;6.20;;;5.03;;
10191;SDS011;17580;50.850;4.504;2023-06-05T07:22:04;5.73;;;5.13;;
10191;SDS011;17580;50.850;4.504;2023-06-05T07:24:31;5.13;;;4.73;;
10191;SDS011;17580;50.850;4.504;2023-06-05T07:27:01;5.77;;;5.23;;
10191;SDS011;17580;50.850;4.504;2023-06-05T07:29:29;6.33;;;5.10;;
10191;SDS011;17580;50.850;4.504;2023-06-05T07:31:57;5.37;;;4.80;;
10191;SDS011;17580;50.850;4.504;2023-06-05T07:34:25;6.50;;;5.90;;
10191;SDS011;17580;50.850;4.504;2023-06-05T07:36:53;5.50;;;5.00;;
10191;SDS011;17580;50.850;4.504;2023-06-05T07:39:22;6.20;;;5.50;;
10191;SDS011;17580;50.850;4.504;2023-06-05T07:41:49;6.90;;;6.27;;
10191;SDS011;17580;50.850;4.504;2023-06-05T07:44:16;5.33;;;4.83;;
10191;SDS011;17580;50.850;4.504;2023-06-05T07:46:45;5.77;;;5.13;;
10191;SDS011;17580;50.850;4.504;2023-06-05T07:49:13;6.40;;;5.50;;
10191;SDS011;17580;50.850;4.504;2023-06-05T07:51:40;5.73;;;5.20;;
10191;SDS011;17580;50.850;4.504;2023-06-05T07:54:09;6.13;;;5.63;;
10191;SDS011;17580;50.850;4.504;2023-06-05T07:56:38;14.60;;;5.13;;
10191;SDS011;17580;50.850;4.504;2023-06-05T07:59:06;5.63;;;5.13;;
10191;SDS011;17580;50.850;4.504;2023-06-05T08:01:34;8.67;;;5.93;;
10191;SDS011;17580;50.850;4.504;2023-06-05T08:04:02;5.73;;;5.33;;
10191;SDS011;17580;50.850;4.504;2023-06-05T08:06:29;6.53;;;5.17;;
10191;SDS011;17580;50.850;4.504;2023-06-05T08:08:58;5.37;;;4.87;;
10191;SDS011;17580;50.850;4.504;2023-06-05T08:11:26;6.90;;;6.30;;
10191;SDS011;17580;50.850;4.504;2023-06-05T08:13:55;6.47;;;5.53;;
10191;SDS011;17580;50.850;4.504;2023-06-05T08:16:22;6.73;;;6.20;;
10191;SDS011;17580;50.850;4.504;2023-06-05T08:18:49;10.13;;;5.77;;
10191;SDS011;17580;50.850;4.504;2023-06-05T08:21:16;5.50;;;5.00;;
10191;SDS011;17580;50.850;4.504;2023-06-05T08:23:43;5.47;;;5.07;;
10191;SDS011;17580;50.850;4.504;2023-06-05T08:26:10;5.60;;;5.10;;
10191;SDS011;17580;50.850;4.504;2023-06-05T08:28:37;8.57;;;5.80;;
10191;SDS011;17580;50.850;4.504;2023-06-05T08:31:07;7.23;;;5.70;;
10191;SDS011;17580;50.850;4.504;2023-06-05T08:33:34;5.37;;;5.07;;
10191;SDS011;17580;50.850;4.504;2023-06-05T08:36:01;5.90;;;5.40;;
10191;SDS011;17580;50.850;4.504;2023-06-05T08:38:29;6.40;;;5.80;;
10191;SDS011;17580;50.850;4.504;2023-06-05T08:40:59;6.13;;;5.53;;
10191;SDS011;17580;50.850;4.504;2023-06-05T08:43:28;5.97;;;5.37;;
10191;SDS011;17580;50.850;4.504;2023-06-05T08:45:55;6.33;;;5.73;;
10191;SDS011;17580;50.850;4.504;2023-06-05T08:48:25;7.57;;;5.10;;
10191;SDS011;17580;50.850;4.504;2023-06-05T08:50:52;6.37;;;5.47;;
10191;SDS011;17580;50.850;4.504;2023-06-05T08:53:20;6.23;;;5.63;;
10191;SDS011;17580;50.850;4.504;2023-06-05T08:55:51;6.67;;;6.07;;
10191;SDS011;17580;50.850;4.504;2023-06-05T08:58:21;5.77;;;5.27;;
10191;SDS011;17580;50.850;4.504;2023-06-05T09:00:48;5.60;;;5.13;;
10191;SDS011;17580;50.850;4.504;2023-06-05T09:03:16;7.40;;;6.73;;
10191;SDS011;17580;50.850;4.504;2023-06-05T09:05:46;6.20;;;5.67;;
10191;SDS011;17580;50.850;4.504;2023-06-05T09:08:13;7.13;;;6.40;;
10191;SDS011;17580;50.850;4.504;2023-06-05T09:10:42;8.17;;;5.63;;
10191;SDS011;17580;50.850;4.504;2023-06-05T09:13:09;6.20;;;5.70;;
10191;SDS011;17580;50.850;4.504;2023-06-05T09:15:36;6.13;;;5.53;;
10191;SDS011;17580;50.850;4.504;2023-06-05T09:18:07;6.23;;;5.73;;
10191;SDS011;17580;50.850;4.504;2023-06-05T09:20:36;6.03;;;5.50;;
10191;SDS011;17580;50.850;4.504;2023-06-05T09:23:21;6.43;;;5.80;;
10191;SDS011;17580;50.850;4.504;2023-06-05T09:25:51;8.83;;;6.20;;
10191;SDS011;17580;50.850;4.504;2023-06-05T09:28:19;6.63;;;6.03;;
10191;SDS011;17580;50.850;4.504;2023-06-05T09:30:53;6.33;;;5.80;;
10191;SDS011;17580;50.850;4.504;2023-06-05T09:33:22;6.70;;;6.10;;
10191;SDS011;17580;50.850;4.504;2023-06-05T09:36:05;6.30;;;5.70;;
10191;SDS011;17580;50.850;4.504;2023-06-05T09:38:36;11.07;;;6.00;;
10191;SDS011;17580;50.850;4.504;2023-06-05T09:41:05;5.93;;;5.40;;
10191;SDS011;17580;50.850;4.504;2023-06-05T09:43:33;6.23;;;5.67;;
10191;SDS011;17580;50.850;4.504;2023-06-05T09:46:08;6.13;;;5.60;;
10191;SDS011;17580;50.850;4.504;2023-06-05T09:48:36;7.10;;;5.60;;
10191;SDS011;17580;50.850;4.504;2023-06-05T09:51:07;5.93;;;5.53;;
10191;SDS011;17580;50.850;4.504;2023-06-05T09:53:39;6.43;;;5.60;;
10191;SDS011;17580;50.850;4.504;2023-06-05T09:56:09;8.27;;;5.43;;
10191;SDS011;17580;50.850;4.504;2023-06-05T09:58:38;5.70;;;5.20;;
10191;SDS011;17580;50.850;4.504;2023-06-05T10:01:09;6.13;;;5.63;;
10191;SDS011;17580;50.850;4.504;2023-06-05T10:03:39;6.20;;;5.60;;
10191;SDS011;17580;50.850;4.504;2023-06-05T10:06:08;5.67;;;5.20;;
10191;SDS011;17580;50.850;4.504;2023-06-05T10:08:36;6.47;;;5.93;;
10191;SDS011;17580;50.850;4.504;2023-06-05T10:11:05;4.97;;;4.57;;
10191;SDS011;17580;50.850;4.504;2023-06-05T10:13:33;6.73;;;5.37;;
10191;SDS011;17580;50.850;4.504;2023-06-05T10:16:01;6.57;;;5.40;;
10191;SDS011;17580;50.850;4.504;2023-06-05T10:18:30;5.87;;;5.37;;
10191;SDS011;17580;50.850;4.504;2023-06-05T10:20:58;6.20;;;5.60;;
10191;SDS011;17580;50.850;4.504;2023-06-05T10:23:25;6.17;;;5.57;;
10191;SDS011;17580;50.850;4.504;2023-06-05T10:25:54;5.10;;;4.67;;
10191;SDS011;17580;50.850;4.504;2023-06-05T10:31:20;5.40;;;4.88;;
10191;SDS011;17580;50.850;4.504;2023-06-05T10:33:59;4.97;;;4.57;;
10191;SDS011;17580;50.850;4.504;2023-06-05T10:36:48;5.00;;;4.63;;
10191;SDS011;17580;50.850;4.504;2023-06-05T10:39:28;5.10;;;4.70;;
10191;SDS011;17580;50.850;4.504;2023-06-05T10:41:56;5.22;;;4.70;;
10191;SDS011;17580;50.850;4.504;2023-06-05T10:50:24;4.45;;;4.07;;
10191;SDS011;17580;50.850;4.504;2023-06-05T10:52:53;5.22;;;4.10;;
10191;SDS011;17580;50.850;4.504;2023-06-05T10:55:24;6.30;;;3.75;;
10191;SDS011;17580;50.850;4.504;2023-06-05T10:58:07;5.65;;;4.10;;
10191;SDS011;17580;50.850;4.504;2023-06-05T11:00:37;4.45;;;4.00;;
10191;SDS011;17580;50.850;4.504;2023-06-05T11:03:05;3.92;;;3.63;;
10191;SDS011;17580;50.850;4.504;2023-06-05T11:05:35;4.45;;;4.00;;
10191;SDS011;17580;50.850;4.504;2023-06-05T11:08:11;4.10;;;3.78;;
10191;SDS011;17580;50.850;4.504;2023-06-05T11:16:27;4.13;;;3.80;;
10191;SDS011;17580;50.850;4.504;2023-06-05T11:22:02;3.50;;;3.30;;
10191;SDS011;17580;50.850;4.504;2023-06-05T11:24:33;5.95;;;4.28;;
10191;SDS011;17580;50.850;4.504;2023-06-05T11:27:01;5.47;;;5.00;;
10191;SDS011;17580;50.850;4.504;2023-06-05T11:29:30;3.75;;;3.42;;
10191;SDS011;17580;50.850;4.504;2023-06-05T11:31:59;3.85;;;3.55;;
10191;SDS011;17580;50.850;4.504;2023-06-05T11:34:26;4.63;;;3.83;;
10191;SDS011;17580;50.850;4.504;2023-06-05T11:36:55;3.90;;;3.60;;
10191;SDS011;17580;50.850;4.504;2023-06-05T11:39:23;5.05;;;3.30;;
10191;SDS011;17580;50.850;4.504;2023-06-05T11:41:55;4.00;;;3.60;;
10191;SDS011;17580;50.850;4.504;2023-06-05T11:44:31;3.60;;;3.40;;
10191;SDS011;17580;50.850;4.504;2023-06-05T11:47:02;3.78;;;3.55;;
10191;SDS011;17580;50.850;4.504;2023-06-05T11:49:29;3.72;;;2.92;;
10191;SDS011;17580;50.850;4.504;2023-06-05T11:51:56;4.80;;;4.00;;
10191;SDS011;17580;50.850;4.504;2023-06-05T11:54:27;4.15;;;3.63;;
10191;SDS011;17580;50.850;4.504;2023-06-05T11:56:56;3.40;;;3.10;;
10191;SDS011;17580;50.850;4.504;2023-06-05T11:59:33;5.50;;;3.35;;
10191;SDS011;17580;50.850;4.504;2023-06-05T12:02:02;4.28;;;3.90;;
10191;SDS011;17580;50.850;4.504;2023-06-05T12:04:30;9.98;;;3.95;;
10191;SDS011;17580;50.850;4.504;2023-06-05T12:06:59;3.80;;;3.38;;
10191;SDS011;17580;50.850;4.504;2023-06-05T12:09:28;7.20;;;3.20;;
10191;SDS011;17580;50.850;4.504;2023-06-05T12:12:04;5.40;;;2.75;;
10191;SDS011;17580;50.850;4.504;2023-06-05T12:14:32;3.58;;;3.28;;
10191;SDS011;17580;50.850;4.504;2023-06-05T12:17:01;4.18;;;2.78;;
10191;SDS011;17580;50.850;4.504;2023-06-05T12:19:35;2.70;;;2.55;;
10191;SDS011;17580;50.850;4.504;2023-06-05T12:22:03;5.78;;;3.00;;
10191;SDS011;17580;50.850;4.504;2023-06-05T12:24:32;2.63;;;2.42;;
10191;SDS011;17580;50.850;4.504;2023-06-05T12:26:59;2.67;;;2.47;;
10191;SDS011;17580;50.850;4.504;2023-06-05T12:29:30;2.80;;;2.58;;
10191;SDS011;17580;50.850;4.504;2023-06-05T12:31:58;3.95;;;3.08;;
10191;SDS011;17580;50.850;4.504;2023-06-05T12:34:40;2.50;;;2.30;;
10191;SDS011;17580;50.850;4.504;2023-06-05T12:37:10;5.35;;;2.58;;
10191;SDS011;17580;50.850;4.504;2023-06-05T12:39:38;3.20;;;2.50;;
10191;SDS011;17580;50.850;4.504;2023-06-05T12:42:05;3.13;;;2.85;;
10191;SDS011;17580;50.850;4.504;2023-06-05T12:44:33;3.38;;;3.08;;
10191;SDS011;17580;50.850;4.504;2023-06-05T12:47:00;3.75;;;2.90;;
10191;SDS011;17580;50.850;4.504;2023-06-05T12:49:27;3.05;;;2.85;;
10191;SDS011;17580;50.850;4.504;2023-06-05T12:51:56;3.28;;;2.70;;
10191;SDS011;17580;50.850;4.504;2023-06-05T12:54:23;2.93;;;2.33;;
10191;SDS011;17580;50.850;4.504;2023-06-05T12:56:52;2.77;;;2.57;;
10191;SDS011;17580;50.850;4.504;2023-06-05T12:59:20;2.63;;;2.50;;
10191;SDS011;17580;50.850;4.504;2023-06-05T13:01:47;4.20;;;3.03;;
10191;SDS011;17580;50.850;4.504;2023-06-05T13:04:14;3.00;;;2.80;;
10191;SDS011;17580;50.850;4.504;2023-06-05T13:06:41;3.13;;;2.17;;
10191;SDS011;17580;50.850;4.504;2023-06-05T13:09:11;5.60;;;2.80;;
10191;SDS011;17580;50.850;4.504;2023-06-05T13:11:38;3.37;;;2.83;;
10191;SDS011;17580;50.850;4.504;2023-06-05T13:14:05;3.27;;;2.97;;
10191;SDS011;17580;50.850;4.504;2023-06-05T13:16:32;2.63;;;2.50;;
10191;SDS011;17580;50.850;4.504;2023-06-05T13:18:59;3.67;;;2.00;;
10191;SDS011;17580;50.850;4.504;2023-06-05T13:21:26;4.53;;;2.60;;
10191;SDS011;17580;50.850;4.504;2023-06-05T13:23:53;2.97;;;2.70;;
10191;SDS011;17580;50.850;4.504;2023-06-05T13:26:22;3.50;;;2.40;;
10191;SDS011;17580;50.850;4.504;2023-06-05T13:28:49;4.27;;;3.03;;
10191;SDS011;17580;50.850;4.504;2023-06-05T13:31:16;5.00;;;2.87;;
10191;SDS011;17580;50.850;4.504;2023-06-05T13:33:44;3.37;;;3.20;;
10191;SDS011;17580;50.850;4.504;2023-06-05T13:36:10;2.77;;;2.67;;
10191;SDS011;17580;50.850;4.504;2023-06-05T13:38:38;3.70;;;2.93;;
10191;SDS011;17580;50.850;4.504;2023-06-05T13:41:04;2.73;;;2.53;;
10191;SDS011;17580;50.850;4.504;2023-06-05T13:43:33;2.43;;;2.33;;
10191;SDS011;17580;50.850;4.504;2023-06-05T13:46:01;3.53;;;2.47;;
10191;SDS011;17580;50.850;4.504;2023-06-05T13:48:28;3.23;;;3.03;;
10191;SDS011;17580;50.850;4.504;2023-06-05T13:50:55;2.67;;;2.17;;
10191;SDS011;17580;50.850;4.504;2023-06-05T13:53:22;3.03;;;2.73;;
10191;SDS011;17580;50.850;4.504;2023-06-05T13:55:50;3.40;;;2.80;;
10191;SDS011;17580;50.850;4.504;2023-06-05T13:58:16;2.40;;;2.23;;
10191;SDS011;17580;50.850;4.504;2023-06-05T14:00:45;4.33;;;2.60;;
10191;SDS011;17580;50.850;4.504;2023-06-05T14:03:13;2.73;;;2.40;;
10191;SDS011;17580;50.850;4.504;2023-06-05T14:05:40;4.87;;;2.77;;
10191;SDS011;17580;50.850;4.504;2023-06-05T14:08:07;2.90;;;2.70;;
10191;SDS011;17580;50.850;4.504;2023-06-05T14:10:34;2.87;;;2.67;;
10191;SDS011;17580;50.850;4.504;2023-06-05T14:13:01;2.60;;;2.40;;
10191;SDS011;17580;50.850;4.504;2023-06-05T14:15:30;3.70;;;2.70;;
10191;SDS011;17580;50.850;4.504;2023-06-05T14:17:59;2.97;;;2.77;;
10191;SDS011;17580;50.850;4.504;2023-06-05T14:20:27;2.47;;;2.07;;
10191;SDS011;17580;50.850;4.504;2023-06-05T14:22:55;3.30;;;2.60;;
10191;SDS011;17580;50.850;4.504;2023-06-05T14:25:22;6.90;;;2.40;;
10191;SDS011;17580;50.850;4.504;2023-06-05T14:27:53;3.13;;;2.83;;
10191;SDS011;17580;50.850;4.504;2023-06-05T14:30:20;2.90;;;2.70;;
10191;SDS011;17580;50.850;4.504;2023-06-05T14:32:47;3.10;;;2.90;;
10191;SDS011;17580;50.850;4.504;2023-06-05T14:35:16;2.47;;;2.30;;
10191;SDS011;17580;50.850;4.504;2023-06-05T14:37:44;2.73;;;2.53;;
10191;SDS011;17580;50.850;4.504;2023-06-05T14:40:11;2.07;;;1.97;;
10191;SDS011;17580;50.850;4.504;2023-06-05T14:42:39;3.17;;;2.90;;
10191;SDS011;17580;50.850;4.504;2023-06-05T14:45:06;4.70;;;3.13;;
10191;SDS011;17580;50.850;4.504;2023-06-05T14:47:34;2.93;;;2.67;;
10191;SDS011;17580;50.850;4.504;2023-06-05T14:50:01;5.33;;;2.57;;
10191;SDS011;17580;50.850;4.504;2023-06-05T14:52:29;3.87;;;3.00;;
10191;SDS011;17580;50.850;4.504;2023-06-05T14:54:56;2.87;;;2.53;;
10191;SDS011;17580;50.850;4.504;2023-06-05T14:57:23;4.70;;;3.47;;
10191;SDS011;17580;50.850;4.504;2023-06-05T14:59:50;3.30;;;3.00;;
10191;SDS011;17580;50.850;4.504;2023-06-05T15:02:17;4.77;;;3.00;;
10191;SDS011;17580;50.850;4.504;2023-06-05T15:04:47;4.07;;;3.23;;
10191;SDS011;17580;50.850;4.504;2023-06-05T15:07:17;2.90;;;2.70;;
10191;SDS011;17580;50.850;4.504;2023-06-05T15:09:46;6.10;;;2.80;;
10191;SDS011;17580;50.850;4.504;2023-06-05T15:12:14;4.40;;;3.00;;